sensor_id;sensor_type;location;lat;lon;timestamp;pressure;altitude;pressure_sealevel;temperature;humidity
64792;BME280;51226;47.504;19.074;2022-10-30T00:01:49;101067.00;;;13.30;92.20
64792;BME280;51226;47.504;19.074;2022-10-30T00:04:52;101064.03;;;13.21;92.94
64792;BME280;51226;47.504;19.074;2022-10-30T00:07:56;101067.87;;;13.08;93.69
64792;BME280;51226;47.504;19.074;2022-10-30T00:11:08;101070.22;;;13.00;94.33
64792;BME280;51226;47.504;19.074;2022-10-30T00:14:11;101061.09;;;13.13;93.36
64792;BME280;51226;47.504;19.074;2022-10-30T00:17:15;101061.16;;;13.14;93.26
64792;BME280;51226;47.504;19.074;2022-10-30T00:20:18;101060.22;;;12.90;94.79
64792;BME280;51226;47.504;19.074;2022-10-30T00:23:20;101057.78;;;12.94;94.84
64792;BME280;51226;47.504;19.074;2022-10-30T00:26:23;101064.34;;;12.83;95.78
64792;BME280;51226;47.504;19.074;2022-10-30T00:29:27;101059.09;;;12.83;95.90
64792;BME280;51226;47.504;19.074;2022-10-30T00:32:29;101059.63;;;12.97;95.04
64792;BME280;51226;47.504;19.074;2022-10-30T00:35:34;101059.38;;;12.91;95.49
64792;BME280;51226;47.504;19.074;2022-10-30T00:38:37;101060.56;;;12.99;94.60
64792;BME280;51226;47.504;19.074;2022-10-30T00:41:40;101062.00;;;13.13;93.57
64792;BME280;51226;47.504;19.074;2022-10-30T00:44:44;101046.53;;;12.97;94.37
64792;BME280;51226;47.504;19.074;2022-10-30T00:47:55;101041.44;;;13.00;94.27
64792;BME280;51226;47.504;19.074;2022-10-30T00:51:00;101047.47;;;12.99;94.38
64792;BME280;51226;47.504;19.074;2022-10-30T00:54:07;101049.09;;;12.95;95.00
64792;BME280;51226;47.504;19.074;2022-10-30T00:57:10;101051.41;;;13.10;93.78
64792;BME280;51226;47.504;19.074;2022-10-30T01:00:14;101049.75;;;13.12;93.67
64792;BME280;51226;47.504;19.074;2022-10-30T01:03:18;101037.19;;;13.04;94.36
64792;BME280;51226;47.504;19.074;2022-10-30T01:06:23;101045.16;;;13.07;94.62
64792;BME280;51226;47.504;19.074;2022-10-30T01:09:26;101043.25;;;13.25;92.67
64792;BME280;51226;47.504;19.074;2022-10-30T01:12:30;101030.66;;;13.15;92.91
64792;BME280;51226;47.504;19.074;2022-10-30T01:15:36;101027.28;;;13.19;92.18
64792;BME280;51226;47.504;19.074;2022-10-30T01:18:51;101026.41;;;13.19;91.54
64792;BME280;51226;47.504;19.074;2022-10-30T01:35:40;100996.84;;;12.76;95.12
64792;BME280;51226;47.504;19.074;2022-10-30T01:38:56;101007.63;;;12.84;94.07
64792;BME280;51226;47.504;19.074;2022-10-30T01:52:48;101005.06;;;12.85;94.87
64792;BME280;51226;47.504;19.074;2022-10-30T01:56:07;101021.13;;;12.94;94.34
64792;BME280;51226;47.504;19.074;2022-10-30T01:59:20;101018.94;;;13.05;93.59
64792;BME280;51226;47.504;19.074;2022-10-30T02:02:25;101023.59;;;13.14;93.03
64792;BME280;51226;47.504;19.074;2022-10-30T02:05:36;101019.19;;;13.13;92.94
64792;BME280;51226;47.504;19.074;2022-10-30T02:08:41;101016.63;;;13.14;92.89
64792;BME280;51226;47.504;19.074;2022-10-30T02:11:45;101020.28;;;13.18;92.49
64792;BME280;51226;47.504;19.074;2022-10-30T02:14:55;101005.00;;;13.30;90.57
64792;BME280;51226;47.504;19.074;2022-10-30T02:17:59;101014.62;;;13.30;90.38
64792;BME280;51226;47.504;19.074;2022-10-30T02:21:03;101016.94;;;13.22;90.75
64792;BME280;51226;47.504;19.074;2022-10-30T02:24:06;101013.44;;;13.22;90.84
64792;BME280;51226;47.504;19.074;2022-10-30T02:27:09;101019.63;;;13.24;90.62
64792;BME280;51226;47.504;19.074;2022-10-30T02:30:14;101027.53;;;13.25;90.62
64792;BME280;51226;47.504;19.074;2022-10-30T02:33:17;101013.56;;;13.25;90.81
64792;BME280;51226;47.504;19.074;2022-10-30T02:36:25;101006.87;;;13.33;89.94
64792;BME280;51226;47.504;19.074;2022-10-30T02:39:29;101000.66;;;13.31;90.02
64792;BME280;51226;47.504;19.074;2022-10-30T02:42:32;100992.94;;;13.34;90.04
64792;BME280;51226;47.504;19.074;2022-10-30T02:45:35;100987.56;;;13.31;90.26
64792;BME280;51226;47.504;19.074;2022-10-30T02:48:37;100994.69;;;13.33;89.83
64792;BME280;51226;47.504;19.074;2022-10-30T02:51:40;101006.28;;;13.40;89.19
64792;BME280;51226;47.504;19.074;2022-10-30T02:54:43;101003.72;;;13.42;88.72
64792;BME280;51226;47.504;19.074;2022-10-30T02:57:46;101002.72;;;13.38;89.23
64792;BME280;51226;47.504;19.074;2022-10-30T03:00:48;101005.44;;;13.41;88.54
64792;BME280;51226;47.504;19.074;2022-10-30T03:03:51;101013.22;;;13.38;88.74
64792;BME280;51226;47.504;19.074;2022-10-30T03:06:54;101019.22;;;13.36;88.77
64792;BME280;51226;47.504;19.074;2022-10-30T03:09:58;101015.59;;;13.32;89.19
64792;BME280;51226;47.504;19.074;2022-10-30T03:13:00;101013.63;;;13.28;89.49
64792;BME280;51226;47.504;19.074;2022-10-30T03:16:12;101009.25;;;13.27;89.56
64792;BME280;51226;47.504;19.074;2022-10-30T03:19:15;101009.50;;;13.33;88.84
64792;BME280;51226;47.504;19.074;2022-10-30T03:22:20;101004.13;;;13.30;89.18
64792;BME280;51226;47.504;19.074;2022-10-30T03:25:23;101011.03;;;13.28;89.18
64792;BME280;51226;47.504;19.074;2022-10-30T03:28:29;101012.22;;;13.36;88.34
64792;BME280;51226;47.504;19.074;2022-10-30T03:31:32;101005.72;;;13.26;89.03
64792;BME280;51226;47.504;19.074;2022-10-30T03:34:37;101012.00;;;13.30;88.95
64792;BME280;51226;47.504;19.074;2022-10-30T03:37:40;101009.25;;;13.27;89.16
64792;BME280;51226;47.504;19.074;2022-10-30T03:40:43;100997.97;;;13.29;88.75
64792;BME280;51226;47.504;19.074;2022-10-30T03:43:46;101005.69;;;13.25;89.01
64792;BME280;51226;47.504;19.074;2022-10-30T03:46:49;101006.56;;;13.25;89.17
64792;BME280;51226;47.504;19.074;2022-10-30T03:49:52;101001.28;;;13.24;89.29
64792;BME280;51226;47.504;19.074;2022-10-30T03:52:56;100997.25;;;13.32;88.79
64792;BME280;51226;47.504;19.074;2022-10-30T03:56:00;100987.44;;;13.28;89.02
64792;BME280;51226;47.504;19.074;2022-10-30T03:59:10;100990.38;;;13.36;88.50
64792;BME280;51226;47.504;19.074;2022-10-30T04:02:13;100986.84;;;13.33;88.64
64792;BME280;51226;47.504;19.074;2022-10-30T04:05:19;100997.09;;;13.29;89.08
64792;BME280;51226;47.504;19.074;2022-10-30T04:08:22;100996.16;;;13.27;89.31
64792;BME280;51226;47.504;19.074;2022-10-30T04:11:25;100997.09;;;13.29;89.17
64792;BME280;51226;47.504;19.074;2022-10-30T04:14:28;100995.81;;;13.40;88.18
64792;BME280;51226;47.504;19.074;2022-10-30T04:17:31;100994.62;;;13.32;88.62
64792;BME280;51226;47.504;19.074;2022-10-30T04:20:35;100988.53;;;13.33;88.63
64792;BME280;51226;47.504;19.074;2022-10-30T04:23:38;100992.13;;;13.35;88.33
64792;BME280;51226;47.504;19.074;2022-10-30T04:26:41;100990.91;;;13.27;88.82
64792;BME280;51226;47.504;19.074;2022-10-30T04:29:44;100994.41;;;13.27;89.01
64792;BME280;51226;47.504;19.074;2022-10-30T04:32:49;100993.31;;;13.21;89.30
64792;BME280;51226;47.504;19.074;2022-10-30T04:35:52;100989.19;;;13.27;88.57
64792;BME280;51226;47.504;19.074;2022-10-30T04:38:56;100992.41;;;13.20;88.92
64792;BME280;51226;47.504;19.074;2022-10-30T04:41:59;100994.13;;;13.20;89.00
64792;BME280;51226;47.504;19.074;2022-10-30T04:45:03;100991.75;;;13.26;88.38
64792;BME280;51226;47.504;19.074;2022-10-30T04:48:12;100990.63;;;13.19;88.27
64792;BME280;51226;47.504;19.074;2022-10-30T04:51:16;100997.53;;;13.17;88.44
64792;BME280;51226;47.504;19.074;2022-10-30T04:54:19;100998.91;;;13.30;87.32
64792;BME280;51226;47.504;19.074;2022-10-30T04:57:23;100996.03;;;13.24;87.20
64792;BME280;51226;47.504;19.074;2022-10-30T05:00:26;100999.97;;;13.12;88.04
64792;BME280;51226;47.504;19.074;2022-10-30T05:03:31;100994.50;;;13.06;88.55
64792;BME280;51226;47.504;19.074;2022-10-30T05:06:35;100997.84;;;13.02;88.68
64792;BME280;51226;47.504;19.074;2022-10-30T05:09:38;100996.25;;;13.06;88.32
64792;BME280;51226;47.504;19.074;2022-10-30T05:12:42;100996.66;;;13.16;87.36
64792;BME280;51226;47.504;19.074;2022-10-30T05:15:44;100992.84;;;13.08;87.82
64792;BME280;51226;47.504;19.074;2022-10-30T05:18:50;101009.75;;;13.16;87.05
64792;BME280;51226;47.504;19.074;2022-10-30T05:21:53;101010.34;;;13.09;87.59
64792;BME280;51226;47.504;19.074;2022-10-30T05:24:57;101018.25;;;13.11;87.56
64792;BME280;51226;47.504;19.074;2022-10-30T05:28:01;101023.91;;;13.22;86.57
64792;BME280;51226;47.504;19.074;2022-10-30T05:31:06;101011.88;;;13.04;87.64
64792;BME280;51226;47.504;19.074;2022-10-30T05:34:09;101019.63;;;13.01;88.05
64792;BME280;51226;47.504;19.074;2022-10-30T05:37:12;101009.87;;;12.97;88.46
64792;BME280;51226;47.504;19.074;2022-10-30T05:40:15;101024.28;;;13.08;87.80
64792;BME280;51226;47.504;19.074;2022-10-30T05:43:18;101021.72;;;13.10;87.79
64792;BME280;51226;47.504;19.074;2022-10-30T05:46:21;101024.03;;;13.02;88.21
64792;BME280;51226;47.504;19.074;2022-10-30T05:49:24;101021.41;;;13.02;88.12
64792;BME280;51226;47.504;19.074;2022-10-30T05:52:27;101019.81;;;13.06;87.99
64792;BME280;51226;47.504;19.074;2022-10-30T05:55:31;101024.28;;;13.08;87.72
64792;BME280;51226;47.504;19.074;2022-10-30T05:58:35;101021.34;;;13.01;88.46
64792;BME280;51226;47.504;19.074;2022-10-30T06:01:38;101019.63;;;13.01;88.66
64792;BME280;51226;47.504;19.074;2022-10-30T06:04:41;101030.34;;;13.07;88.28
64792;BME280;51226;47.504;19.074;2022-10-30T06:07:44;101030.66;;;13.15;87.81
64792;BME280;51226;47.504;19.074;2022-10-30T06:10:47;101029.09;;;13.20;87.57
64792;BME280;51226;47.504;19.074;2022-10-30T06:13:50;101029.09;;;13.20;87.80
64792;BME280;51226;47.504;19.074;2022-10-30T06:16:54;101015.59;;;13.32;86.67
64792;BME280;51226;47.504;19.074;2022-10-30T06:19:57;101013.75;;;13.31;86.72
64792;BME280;51226;47.504;19.074;2022-10-30T06:23:06;101026.34;;;13.17;87.68
64792;BME280;51226;47.504;19.074;2022-10-30T06:26:10;101031.78;;;13.22;87.74
64792;BME280;51226;47.504;19.074;2022-10-30T06:29:14;101019.63;;;13.24;87.64
64792;BME280;51226;47.504;19.074;2022-10-30T06:32:16;101014.62;;;13.30;87.00
64792;BME280;51226;47.504;19.074;2022-10-30T06:35:20;101023.34;;;13.30;86.97
64792;BME280;51226;47.504;19.074;2022-10-30T06:38:22;101039.94;;;13.31;86.76
64792;BME280;51226;47.504;19.074;2022-10-30T06:41:26;101040.81;;;13.30;86.76
64792;BME280;51226;47.504;19.074;2022-10-30T06:44:32;101042.41;;;13.26;87.07
64792;BME280;51226;47.504;19.074;2022-10-30T06:47:35;101048.97;;;13.38;86.42
64792;BME280;51226;47.504;19.074;2022-10-30T06:50:38;101051.59;;;13.38;86.33
64792;BME280;51226;47.504;19.074;2022-10-30T06:53:42;101049.97;;;13.41;86.25
64792;BME280;51226;47.504;19.074;2022-10-30T06:56:51;101046.75;;;13.48;87.03
64792;BME280;51226;47.504;19.074;2022-10-30T06:59:54;101048.16;;;13.39;87.52
64792;BME280;51226;47.504;19.074;2022-10-30T07:02:58;101056.84;;;13.38;87.48
64792;BME280;51226;47.504;19.074;2022-10-30T07:06:02;101047.22;;;13.37;87.49
64792;BME280;51226;47.504;19.074;2022-10-30T07:09:06;101038.50;;;13.38;87.53
64792;BME280;51226;47.504;19.074;2022-10-30T07:15:30;101043.03;;;13.42;87.46
64792;BME280;51226;47.504;19.074;2022-10-30T07:18:33;101039.84;;;13.50;86.93
64792;BME280;51226;47.504;19.074;2022-10-30T07:21:36;101044.09;;;13.47;86.80
64792;BME280;51226;47.504;19.074;2022-10-30T07:24:39;101046.66;;;13.45;87.12
64792;BME280;51226;47.504;19.074;2022-10-30T07:27:46;101040.53;;;13.45;87.36
64792;BME280;51226;47.504;19.074;2022-10-30T07:30:52;101041.66;;;13.51;87.19
64792;BME280;51226;47.504;19.074;2022-10-30T07:33:55;101045.19;;;13.53;87.36
64792;BME280;51226;47.504;19.074;2022-10-30T07:36:58;101048.09;;;13.61;87.26
64792;BME280;51226;47.504;19.074;2022-10-30T07:40:01;101042.38;;;13.73;86.26
64792;BME280;51226;47.504;19.074;2022-10-30T07:43:05;101055.41;;;13.70;86.29
64792;BME280;51226;47.504;19.074;2022-10-30T07:46:13;101050.25;;;13.73;86.33
64792;BME280;51226;47.504;19.074;2022-10-30T07:49:17;101059.03;;;13.74;86.26
64792;BME280;51226;47.504;19.074;2022-10-30T07:52:22;101058.13;;;13.73;86.52
64792;BME280;51226;47.504;19.074;2022-10-30T07:55:26;101060.56;;;13.93;85.03
64792;BME280;51226;47.504;19.074;2022-10-30T07:58:30;101059.41;;;13.84;85.58
64792;BME280;51226;47.504;19.074;2022-10-30T08:01:34;101058.00;;;13.94;84.49
64792;BME280;51226;47.504;19.074;2022-10-30T08:04:39;101059.28;;;13.81;85.45
64792;BME280;51226;47.504;19.074;2022-10-30T08:07:45;101052.34;;;13.82;85.53
64792;BME280;51226;47.504;19.074;2022-10-30T08:10:49;101063.06;;;13.89;84.95
64792;BME280;51226;47.504;19.074;2022-10-30T08:13:51;101058.69;;;13.88;85.01
64792;BME280;51226;47.504;19.074;2022-10-30T08:16:55;101053.56;;;13.92;84.89
64792;BME280;51226;47.504;19.074;2022-10-30T08:19:57;101054.84;;;14.04;83.96
64792;BME280;51226;47.504;19.074;2022-10-30T08:23:01;101056.88;;;14.12;83.57
64792;BME280;51226;47.504;19.074;2022-10-30T08:26:06;101060.69;;;13.96;84.11
64792;BME280;51226;47.504;19.074;2022-10-30T08:29:10;101062.00;;;14.08;83.25
64792;BME280;51226;47.504;19.074;2022-10-30T08:32:13;101058.53;;;14.09;83.39
64792;BME280;51226;47.504;19.074;2022-10-30T08:35:19;101050.59;;;14.08;83.61
64792;BME280;51226;47.504;19.074;2022-10-30T08:38:23;101059.50;;;14.12;83.64
64792;BME280;51226;47.504;19.074;2022-10-30T08:41:28;101060.87;;;14.27;82.46
64792;BME280;51226;47.504;19.074;2022-10-30T08:44:31;101065.25;;;14.27;82.83
64792;BME280;51226;47.504;19.074;2022-10-30T08:47:37;101061.72;;;14.26;83.01
64792;BME280;51226;47.504;19.074;2022-10-30T08:50:41;101056.59;;;14.30;82.69
64792;BME280;51226;47.504;19.074;2022-10-30T08:53:47;101058.94;;;14.48;81.75
64792;BME280;51226;47.504;19.074;2022-10-30T08:56:51;101051.16;;;14.51;81.71
64792;BME280;51226;47.504;19.074;2022-10-30T08:59:54;101049.41;;;14.77;79.96
64792;BME280;51226;47.504;19.074;2022-10-30T09:03:03;101055.91;;;14.61;80.62
64792;BME280;51226;47.504;19.074;2022-10-30T09:06:10;101058.22;;;14.52;81.10
64792;BME280;51226;47.504;19.074;2022-10-30T09:09:14;101053.44;;;14.66;80.46
64792;BME280;51226;47.504;19.074;2022-10-30T09:12:18;101056.72;;;14.60;80.63
64792;BME280;51226;47.504;19.074;2022-10-30T09:15:21;101052.50;;;14.63;80.57
64792;BME280;51226;47.504;19.074;2022-10-30T09:18:25;101051.84;;;14.71;80.54
64792;BME280;51226;47.504;19.074;2022-10-30T09:21:28;101054.56;;;14.74;80.40
64792;BME280;51226;47.504;19.074;2022-10-30T09:24:31;101058.06;;;14.74;79.86
64792;BME280;51226;47.504;19.074;2022-10-30T09:27:38;101059.16;;;14.81;78.64
64792;BME280;51226;47.504;19.074;2022-10-30T09:30:43;101054.56;;;14.74;79.75
64792;BME280;51226;47.504;19.074;2022-10-30T09:33:46;101056.53;;;14.81;79.44
64792;BME280;51226;47.504;19.074;2022-10-30T09:36:55;101050.34;;;14.79;79.26
64792;BME280;51226;47.504;19.074;2022-10-30T09:39:58;101051.59;;;14.90;78.99
64792;BME280;51226;47.504;19.074;2022-10-30T09:43:42;101053.53;;;14.97;77.81
64792;BME280;51226;47.504;19.074;2022-10-30T09:53:43;101045.56;;;14.94;77.85
64792;BME280;51226;47.504;19.074;2022-10-30T09:56:59;101046.41;;;14.93;78.08
64792;BME280;51226;47.504;19.074;2022-10-30T10:00:09;101037.03;;;15.01;77.84
64792;BME280;51226;47.504;19.074;2022-10-30T10:03:27;101034.84;;;15.15;77.30
64792;BME280;51226;47.504;19.074;2022-10-30T10:06:38;101034.06;;;15.19;77.18
64792;BME280;51226;47.504;19.074;2022-10-30T10:09:47;101026.66;;;15.36;76.61
64792;BME280;51226;47.504;19.074;2022-10-30T10:12:53;101030.31;;;15.42;75.86
64792;BME280;51226;47.504;19.074;2022-10-30T10:16:13;101026.84;;;15.43;76.42
64792;BME280;51226;47.504;19.074;2022-10-30T10:19:20;101030.63;;;15.52;76.33
64792;BME280;51226;47.504;19.074;2022-10-30T10:22:35;101018.59;;;15.61;75.43
64792;BME280;51226;47.504;19.074;2022-10-30T10:25:42;101017.72;;;15.62;75.06
64792;BME280;51226;47.504;19.074;2022-10-30T10:39:06;101007.94;;;15.56;74.83
64792;BME280;51226;47.504;19.074;2022-10-30T10:52:08;101006.28;;;15.60;73.95
64792;BME280;51226;47.504;19.074;2022-10-30T10:55:16;101007.75;;;15.50;74.20
64792;BME280;51226;47.504;19.074;2022-10-30T11:01:57;100992.16;;;15.56;73.83
64792;BME280;51226;47.504;19.074;2022-10-30T11:05:24;100987.47;;;15.44;74.67
64792;BME280;51226;47.504;19.074;2022-10-30T11:08:31;100981.81;;;15.62;74.35
64792;BME280;51226;47.504;19.074;2022-10-30T11:11:36;100984.53;;;15.97;72.91
64792;BME280;51226;47.504;19.074;2022-10-30T11:14:39;100986.00;;;16.21;71.32
64792;BME280;51226;47.504;19.074;2022-10-30T11:17:58;100989.00;;;16.01;72.62
64792;BME280;51226;47.504;19.074;2022-10-30T11:21:11;100983.91;;;16.07;72.04
64792;BME280;51226;47.504;19.074;2022-10-30T11:24:29;100986.91;;;16.23;71.96
64792;BME280;51226;47.504;19.074;2022-10-30T11:27:33;100985.19;;;16.25;71.81
64792;BME280;51226;47.504;19.074;2022-10-30T11:30:36;100985.59;;;16.42;70.83
64792;BME280;51226;47.504;19.074;2022-10-30T11:33:38;100987.00;;;16.26;71.33
64792;BME280;51226;47.504;19.074;2022-10-30T11:36:42;100983.19;;;16.15;71.72
64792;BME280;51226;47.504;19.074;2022-10-30T11:40:00;100981.16;;;16.03;71.80
64792;BME280;51226;47.504;19.074;2022-10-30T11:43:04;100978.97;;;15.86;72.87
64792;BME280;51226;47.504;19.074;2022-10-30T11:46:08;100970.81;;;15.76;73.64
64792;BME280;51226;47.504;19.074;2022-10-30T11:49:24;100967.78;;;15.95;72.80
64792;BME280;51226;47.504;19.074;2022-10-30T11:52:28;100969.78;;;16.04;72.38
64792;BME280;51226;47.504;19.074;2022-10-30T11:55:45;100963.41;;;15.94;72.80
64792;BME280;51226;47.504;19.074;2022-10-30T11:58:52;100960.81;;;15.96;72.85
64792;BME280;51226;47.504;19.074;2022-10-30T12:02:20;100959.22;;;16.02;72.54
64792;BME280;51226;47.504;19.074;2022-10-30T12:05:39;100957.50;;;16.04;72.53
64792;BME280;51226;47.504;19.074;2022-10-30T12:09:12;100951.56;;;16.13;71.99
64792;BME280;51226;47.504;19.074;2022-10-30T12:12:23;100957.62;;;16.09;72.95
64792;BME280;51226;47.504;19.074;2022-10-30T12:15:28;100955.25;;;16.20;72.54
64792;BME280;51226;47.504;19.074;2022-10-30T12:18:32;100952.91;;;16.30;71.70
64792;BME280;51226;47.504;19.074;2022-10-30T12:21:37;100956.31;;;16.28;72.02
64792;BME280;51226;47.504;19.074;2022-10-30T12:24:42;100954.78;;;16.36;71.07
64792;BME280;51226;47.504;19.074;2022-10-30T12:27:45;100958.03;;;16.26;71.76
64792;BME280;51226;47.504;19.074;2022-10-30T12:31:17;100946.44;;;16.18;72.25
64792;BME280;51226;47.504;19.074;2022-10-30T12:34:55;100941.28;;;16.22;72.15
64792;BME280;51226;47.504;19.074;2022-10-30T12:38:04;100928.37;;;16.33;71.78
64792;BME280;51226;47.504;19.074;2022-10-30T12:41:15;100941.38;;;16.27;71.96
64792;BME280;51226;47.504;19.074;2022-10-30T12:44:28;100944.12;;;16.32;71.60
64792;BME280;51226;47.504;19.074;2022-10-30T12:47:44;100955.47;;;16.29;72.11
64792;BME280;51226;47.504;19.074;2022-10-30T12:54:30;100955.69;;;16.38;71.57
64792;BME280;51226;47.504;19.074;2022-10-30T12:57:37;100949.66;;;16.42;71.48
64792;BME280;51226;47.504;19.074;2022-10-30T13:00:56;100944.66;;;16.55;70.93
64792;BME280;51226;47.504;19.074;2022-10-30T13:04:12;100954.22;;;16.51;70.77
64792;BME280;51226;47.504;19.074;2022-10-30T13:07:34;100946.69;;;16.28;71.90
64792;BME280;51226;47.504;19.074;2022-10-30T13:10:44;100945.87;;;16.31;72.41
64792;BME280;51226;47.504;19.074;2022-10-30T13:13:51;100937.97;;;16.31;72.16
64792;BME280;51226;47.504;19.074;2022-10-30T13:16:54;100947.62;;;16.30;72.42
64792;BME280;51226;47.504;19.074;2022-10-30T13:19:58;100943.75;;;16.16;72.55
64792;BME280;51226;47.504;19.074;2022-10-30T13:23:09;100944.56;;;16.14;72.95
64792;BME280;51226;47.504;19.074;2022-10-30T13:26:24;100939.81;;;15.99;73.56
64792;BME280;51226;47.504;19.074;2022-10-30T13:29:36;100935.22;;;15.90;74.29
64792;BME280;51226;47.504;19.074;2022-10-30T13:36:20;100943.16;;;15.91;74.42
64792;BME280;51226;47.504;19.074;2022-10-30T13:42:56;100939.84;;;16.00;74.42
64792;BME280;51226;47.504;19.074;2022-10-30T13:52:34;100937.31;;;16.03;74.05
64792;BME280;51226;47.504;19.074;2022-10-30T13:55:40;100943.97;;;15.89;74.77
64792;BME280;51226;47.504;19.074;2022-10-30T14:05:27;100929.31;;;15.65;75.79
64792;BME280;51226;47.504;19.074;2022-10-30T14:08:38;100921.25;;;15.59;76.24
64792;BME280;51226;47.504;19.074;2022-10-30T14:11:43;100928.44;;;15.33;77.58
64792;BME280;51226;47.504;19.074;2022-10-30T14:14:46;100932.69;;;15.28;78.04
64792;BME280;51226;47.504;19.074;2022-10-30T14:24:45;100943.50;;;15.38;77.83
64792;BME280;51226;47.504;19.074;2022-10-30T14:27:53;100948.59;;;15.32;78.15
64792;BME280;51226;47.504;19.074;2022-10-30T14:31:18;100951.22;;;15.32;78.15
64792;BME280;51226;47.504;19.074;2022-10-30T14:34:44;100951.25;;;15.34;78.27
64792;BME280;51226;47.504;19.074;2022-10-30T14:40:58;100941.63;;;15.34;78.14
64792;BME280;51226;47.504;19.074;2022-10-30T14:51:01;100926.62;;;15.30;78.27
64792;BME280;51226;47.504;19.074;2022-10-30T14:54:29;100923.16;;;15.31;78.33
64792;BME280;51226;47.504;19.074;2022-10-30T15:04:14;100923.09;;;14.98;79.80
64792;BME280;51226;47.504;19.074;2022-10-30T15:10:31;100910.88;;;14.98;80.04
64792;BME280;51226;47.504;19.074;2022-10-30T15:13:34;100910.88;;;15.00;79.95
64792;BME280;51226;47.504;19.074;2022-10-30T15:16:38;100914.41;;;15.00;79.88
64792;BME280;51226;47.504;19.074;2022-10-30T15:19:41;100910.16;;;14.74;81.01
64792;BME280;51226;47.504;19.074;2022-10-30T15:22:46;100910.09;;;14.72;81.28
64792;BME280;51226;47.504;19.074;2022-10-30T15:25:51;100910.63;;;14.60;81.97
64792;BME280;51226;47.504;19.074;2022-10-30T15:28:55;100915.75;;;14.57;82.27
64792;BME280;51226;47.504;19.074;2022-10-30T15:32:14;100912.59;;;14.68;81.90
64792;BME280;51226;47.504;19.074;2022-10-30T15:35:23;100927.66;;;14.46;82.87
64792;BME280;51226;47.504;19.074;2022-10-30T15:38:26;100934.59;;;14.44;83.16
64792;BME280;51226;47.504;19.074;2022-10-30T15:41:29;100928.41;;;14.42;83.31
64792;BME280;51226;47.504;19.074;2022-10-30T15:44:38;100924.81;;;14.40;83.39
64792;BME280;51226;47.504;19.074;2022-10-30T15:47:45;100926.47;;;14.36;83.58
64792;BME280;51226;47.504;19.074;2022-10-30T15:51:02;100925.50;;;14.33;83.93
64792;BME280;51226;47.504;19.074;2022-10-30T15:54:10;100931.53;;;14.30;84.01
64792;BME280;51226;47.504;19.074;2022-10-30T15:57:52;100934.00;;;14.25;84.39
64792;BME280;51226;47.504;19.074;2022-10-30T16:01:23;100936.62;;;14.25;84.48
64792;BME280;51226;47.504;19.074;2022-10-30T16:04:32;100933.81;;;14.19;85.05
64792;BME280;51226;47.504;19.074;2022-10-30T16:07:43;100932.31;;;14.27;84.58
64792;BME280;51226;47.504;19.074;2022-10-30T16:10:51;100940.84;;;14.20;85.01
64792;BME280;51226;47.504;19.074;2022-10-30T16:13:55;100937.31;;;14.20;85.20
64792;BME280;51226;47.504;19.074;2022-10-30T16:16:58;100937.53;;;14.26;84.96
64792;BME280;51226;47.504;19.074;2022-10-30T16:20:02;100936.62;;;14.25;85.08
64792;BME280;51226;47.504;19.074;2022-10-30T16:23:07;100945.44;;;14.27;85.09
64792;BME280;51226;47.504;19.074;2022-10-30T16:26:29;100942.03;;;14.30;85.04
64792;BME280;51226;47.504;19.074;2022-10-30T16:29:34;100941.13;;;14.30;85.09
64792;BME280;51226;47.504;19.074;2022-10-30T16:32:37;100941.84;;;14.24;85.61
64792;BME280;51226;47.504;19.074;2022-10-30T16:35:41;100941.72;;;14.21;85.87
64792;BME280;51226;47.504;19.074;2022-10-30T16:38:46;100940.84;;;14.20;86.03
64792;BME280;51226;47.504;19.074;2022-10-30T16:41:50;100944.47;;;14.24;85.91
64792;BME280;51226;47.504;19.074;2022-10-30T16:45:04;100934.06;;;14.27;85.85
64792;BME280;51226;47.504;19.074;2022-10-30T16:48:21;100940.19;;;14.27;85.82
64792;BME280;51226;47.504;19.074;2022-10-30T16:51:29;100940.34;;;14.32;85.61
64792;BME280;51226;47.504;19.074;2022-10-30T16:54:36;100940.41;;;14.34;85.57
64792;BME280;51226;47.504;19.074;2022-10-30T16:57:44;100943.91;;;14.34;85.58
64792;BME280;51226;47.504;19.074;2022-10-30T17:00:53;100940.34;;;14.32;85.74
64792;BME280;51226;47.504;19.074;2022-10-30T17:03:58;100946.25;;;14.25;86.28
64792;BME280;51226;47.504;19.074;2022-10-30T17:07:05;100952.31;;;14.24;86.43
64792;BME280;51226;47.504;19.074;2022-10-30T17:13:37;100948.91;;;14.26;86.43
64792;BME280;51226;47.504;19.074;2022-10-30T17:16:56;100954.78;;;14.46;85.44
64792;BME280;51226;47.504;19.074;2022-10-30T17:20:04;100948.66;;;14.46;85.10
64792;BME280;51226;47.504;19.074;2022-10-30T17:23:17;100947.12;;;14.25;86.20
64792;BME280;51226;47.504;19.074;2022-10-30T17:26:21;100953.97;;;14.20;86.52
64792;BME280;51226;47.504;19.074;2022-10-30T17:32:43;100957.53;;;14.22;86.00
64792;BME280;51226;47.504;19.074;2022-10-30T17:35:46;100959.16;;;14.19;86.08
64792;BME280;51226;47.504;19.074;2022-10-30T17:38:49;100954.50;;;14.10;86.74
64792;BME280;51226;47.504;19.074;2022-10-30T17:41:55;100951.63;;;14.02;87.31
64792;BME280;51226;47.504;19.074;2022-10-30T17:44:59;100957.19;;;14.12;86.97
64792;BME280;51226;47.504;19.074;2022-10-30T17:48:02;100965.28;;;14.19;86.46
64792;BME280;51226;47.504;19.074;2022-10-30T17:51:04;100972.94;;;14.12;86.71
64792;BME280;51226;47.504;19.074;2022-10-30T17:54:11;100972.13;;;14.14;86.22
64792;BME280;51226;47.504;19.074;2022-10-30T17:57:15;100971.47;;;14.21;85.80
64792;BME280;51226;47.504;19.074;2022-10-30T18:00:18;100986.97;;;14.14;86.45